Time;durP1;ratioP1;P1;durP2;ratioP2;P2;SDS_P1;SDS_P2;PMS_P1;PMS_P2;Temp;Humidity;BMP_temperature;BMP_pressure;BME280_temperature;BME280_humidity;BME280_pressure;Samples;Min_cycle;Max_cycle;Signal;HPM_P1;HPM_P2
2021/10/09 06:59:27;;;;;;;21.40;7.20;;;18.60;70.80;;;;;;4754313;30;20064;-71
2021/10/09 07:01:42;;;;;;;18.48;11.45;;;18.70;70.50;;;;;;4753842;30;20068;-71
2021/10/09 07:04:08;;;;;;;18.98;7.78;;;18.40;65.00;;;;;;4753689;30;20131;-71
2021/10/09 07:06:34;;;;;;;16.45;7.63;;;18.20;69.80;;;;;;4753894;30;20147;-71
2021/10/09 07:08:59;;;;;;;25.38;7.00;;;18.40;70.90;;;;;;4754260;30;20047;-72
2021/10/09 07:11:25;;;;;;;13.55;6.22;;;18.50;71.10;;;;;;4746822;30;20109;-72
2021/10/09 07:13:51;;;;;;;21.13;7.28;;;18.60;71.00;;;;;;4771314;30;20059;-72
2021/10/09 07:16:16;;;;;;;16.77;6.30;;;18.60;70.70;;;;;;4771122;30;20091;-73
2021/10/09 07:18:42;;;;;;;20.55;6.32;;;18.70;70.70;;;;;;4770146;30;20426;-72
2021/10/09 07:21:08;;;;;;;16.25;6.40;;;18.70;70.80;;;;;;4773564;30;20058;-73
2021/10/09 07:23:34;;;;;;;19.42;6.95;;;18.70;70.60;;;;;;4774573;30;20139;-73
2021/10/09 07:25:59;;;;;;;16.42;6.80;;;18.80;70.50;;;;;;4774773;30;20211;-73
2021/10/09 07:28:25;;;;;;;14.98;6.65;;;18.80;70.50;;;;;;4774788;30;20087;-72
2021/10/09 07:30:51;;;;;;;18.23;7.03;;;18.80;70.30;;;;;;4774265;30;20052;-73
2021/10/09 07:33:16;;;;;;;14.60;7.45;;;18.80;70.10;;;;;;4758794;30;20061;-74
2021/10/09 07:35:42;;;;;;;18.00;7.85;;;18.80;70.00;;;;;;4758931;30;20056;-72
2021/10/09 07:38:08;;;;;;;12.10;7.50;;;18.90;69.90;;;;;;4768891;30;20123;-72
2021/10/09 07:40:34;;;;;;;10.55;6.75;;;18.90;69.30;;;;;;4774613;30;20478;-72
2021/10/09 07:42:59;;;;;;;11.80;6.25;;;18.90;69.00;;;;;;4774680;30;20040;-73
2021/10/09 07:45:25;;;;;;;24.08;6.68;;;18.90;69.30;;;;;;4774532;30;20087;-73
2021/10/09 07:47:51;;;;;;;12.30;7.50;;;18.90;69.50;;;;;;4774257;30;20051;-69
2021/10/09 07:50:16;;;;;;;13.77;7.47;;;18.90;69.30;;;;;;4774412;30;20047;-71
2021/10/09 07:52:42;;;;;;;12.38;6.38;;;18.90;68.70;;;;;;4773005;30;20064;-69
2021/10/09 07:55:09;;;;;;;16.25;7.60;;;18.90;68.80;;;;;;4769603;30;20134;-70
2021/10/09 07:57:35;;;;;;;13.00;6.57;;;18.90;68.80;;;;;;4774552;30;20059;-72
2021/10/09 08:00:01;;;;;;;10.20;6.35;;;18.90;68.40;;;;;;4774205;30;20059;-70
2021/10/09 08:02:27;;;;;;;10.85;6.97;;;18.90;68.60;;;;;;4774381;30;20360;-71
2021/10/09 08:04:53;;;;;;;10.13;5.90;;;18.90;68.60;;;;;;4774327;30;20062;-71
2021/10/09 08:07:19;;;;;;;11.68;6.80;;;18.90;68.90;;;;;;4758365;30;20471;-74
2021/10/09 08:09:45;;;;;;;12.23;5.95;;;18.90;69.00;;;;;;4774254;30;20051;-70
2021/10/09 08:12:10;;;;;;;14.63;6.10;;;19.00;69.10;;;;;;4773400;30;20387;-68
2021/10/09 08:14:36;;;;;;;12.98;6.97;;;19.00;69.20;;;;;;4773919;30;20055;-73
2021/10/09 08:17:02;;;;;;;14.30;6.45;;;19.00;69.00;;;;;;4773620;30;20090;-70
2021/10/09 08:19:28;;;;;;;9.98;6.60;;;18.90;68.90;;;;;;4759120;30;20059;-69
2021/10/09 08:21:55;;;;;;;15.60;6.75;;;18.90;69.00;;;;;;4773936;30;20064;-69
2021/10/09 08:40:11;;;;;;;18.90;7.60;;;18.90;69.40;;;;;;4762969;30;20094;-70
2021/10/09 08:42:37;;;;;;;13.90;7.82;;;18.90;69.50;;;;;;4759875;30;20044;-70
2021/10/09 08:45:04;;;;;;;12.32;7.63;;;18.90;69.30;;;;;;4763151;30;20071;-70
2021/10/09 08:47:33;;;;;;;13.75;7.03;;;18.80;69.50;;;;;;4768672;30;20055;-73
2021/10/09 08:49:59;;;;;;;18.65;7.07;;;18.90;69.80;;;;;;4773415;30;20464;-73
2021/10/09 08:52:26;;;;;;;21.20;8.40;;;18.80;70.00;;;;;;4773499;30;20052;-73
2021/10/09 08:54:52;;;;;;;17.70;10.05;;;18.90;69.90;;;;;;4757775;30;20064;-73
2021/10/09 08:57:23;;;;;;;16.02;10.32;;;18.90;69.40;;;;;;4757988;30;20067;-74
2021/10/09 08:59:54;;;;;;;17.35;10.30;;;18.90;69.00;;;;;;4773290;30;20055;-74
2021/10/09 09:02:44;;;;;;;18.10;11.68;;;18.90;69.00;;;;;;4773584;30;20044;-72
2021/10/09 09:27:18;;;;;;;27.75;14.20;;;19.00;68.70;;;;;;4739527;30;20460;-74
2021/10/09 09:40:43;;;;;;;28.25;15.70;;;18.80;68.40;;;;;;4762881;30;20048;-72
2021/10/09 09:43:11;;;;;;;26.58;16.30;;;18.80;68.00;;;;;;4772516;30;20143;-69
2021/10/09 09:45:37;;;;;;;25.48;16.17;;;18.80;68.00;;;;;;4756684;30;20133;-70
2021/10/09 09:48:05;;;;;;;26.00;15.15;;;18.80;68.10;;;;;;4772653;30;20083;-69
2021/10/09 09:50:31;;;;;;;24.13;15.15;;;18.90;68.30;;;;;;4756955;30;20205;-70
2021/10/09 09:53:00;;;;;;;24.42;15.27;;;18.90;68.60;;;;;;4771965;30;20056;-70
2021/10/09 09:55:26;;;;;;;23.88;14.98;;;18.90;68.70;;;;;;4757083;30;20360;-69
2021/10/09 09:57:53;;;;;;;27.05;16.13;;;18.90;69.00;;;;;;4772274;30;20056;-70
2021/10/09 10:00:19;;;;;;;25.75;15.02;;;18.80;68.90;;;;;;4772453;30;20158;-71
2021/10/09 10:02:49;;;;;;;28.70;15.27;;;18.80;69.20;;;;;;4772675;30;20052;-69
2021/10/09 10:05:15;;;;;;;27.95;14.98;;;18.80;69.30;;;;;;4772165;30;20062;-70
2021/10/09 10:07:41;;;;;;;27.08;14.55;;;18.80;70.00;;;;;;4770045;30;20044;-70
2021/10/09 10:10:09;;;;;;;33.97;16.27;;;18.80;69.60;;;;;;4771912;30;20474;-70
2021/10/09 10:12:39;;;;;;;30.10;15.60;;;18.20;67.80;;;;;;4756724;30;20376;-71
2021/10/09 10:15:07;;;;;;;32.75;18.35;;;17.90;70.00;;;;;;4772178;30;20054;-74
2021/10/09 10:17:46;;;;;;;28.75;20.38;;;18.00;70.60;;;;;;4771981;30;20122;-72
2021/10/09 10:20:13;;;;;;;30.73;20.60;;;18.00;70.00;;;;;;4772579;30;20434;-72
2021/10/09 10:22:42;;;;;;;30.98;19.83;;;17.90;69.80;;;;;;4762974;30;20056;-72
2021/10/09 10:25:16;;;;;;;33.17;23.30;;;17.90;69.50;;;;;;4757275;30;20422;-71
2021/10/09 10:27:44;;;;;;;34.80;24.00;;;17.90;69.00;;;;;;4771208;30;20139;-72
2021/10/09 10:30:16;;;;;;;44.47;26.15;;;17.90;69.00;;;;;;4756464;30;20099;-74
2021/10/09 10:32:54;;;;;;;39.00;25.95;;;17.90;68.40;;;;;;4771702;30;20060;-74
2021/10/09 10:35:29;;;;;;;29.20;21.65;;;17.90;68.10;;;;;;4771823;30;20062;-71
2021/10/09 10:38:04;;;;;;;29.27;20.95;;;17.70;68.90;;;;;;4770536;30;20052;-70
2021/10/09 10:40:46;;;;;;;32.13;21.02;;;17.50;69.70;;;;;;4772669;30;20047;-70
2021/10/09 10:43:51;;;;;;;27.33;20.67;;;17.30;70.40;;;;;;4771750;30;20064;-70
2021/10/09 10:46:21;;;;;;;26.40;19.52;;;17.10;71.00;;;;;;4772099;30;20059;-70
2021/10/09 10:54:15;;;;;;;24.67;19.52;;;16.90;71.90;;;;;;4771830;30;20070;-70
2021/10/09 10:57:02;;;;;;;27.38;20.27;;;16.80;72.20;;;;;;4774705;30;20503;-70
2021/10/09 10:59:30;;;;;;;28.60;19.85;;;16.80;72.30;;;;;;4775313;30;20371;-70
2021/10/09 11:02:09;;;;;;;26.42;19.80;;;16.80;72.50;;;;;;4775185;30;20048;-71
2021/10/09 11:04:43;;;;;;;24.27;19.70;;;16.80;72.50;;;;;;4775343;30;20372;-70
2021/10/09 11:07:10;;;;;;;25.10;18.95;;;16.70;72.60;;;;;;4759573;30;20059;-70
2021/10/09 11:09:38;;;;;;;26.75;18.27;;;16.70;72.70;;;;;;4775296;30;20063;-71
2021/10/09 11:12:17;;;;;;;24.45;18.75;;;16.70;72.70;;;;;;4775625;30;20380;-70
2021/10/09 11:14:43;;;;;;;25.58;18.70;;;16.70;72.70;;;;;;4759370;30;20064;-70
2021/10/09 11:17:10;;;;;;;21.75;16.55;;;16.80;72.70;;;;;;4775083;30;20062;-72
2021/10/09 11:19:40;;;;;;;23.08;18.05;;;16.80;72.70;;;;;;4775160;30;20047;-70
2021/10/09 11:22:06;;;;;;;27.38;19.15;;;16.80;72.80;;;;;;4774983;30;20129;-71
2021/10/09 11:24:51;;;;;;;22.75;18.35;;;16.70;72.80;;;;;;4774842;30;20448;-70
2021/10/09 11:27:19;;;;;;;20.55;16.65;;;16.70;73.40;;;;;;4745132;30;20587;-70
2021/10/09 11:30:10;;;;;;;19.83;17.58;;;16.70;72.80;;;;;;4774836;30;20059;-70
2021/10/09 11:32:39;;;;;;;23.55;17.60;;;16.70;72.90;;;;;;4774670;30;20200;-71
2021/10/09 11:35:06;;;;;;;20.50;17.08;;;16.70;72.90;;;;;;4759749;30;20133;-70
2021/10/09 11:37:33;;;;;;;22.95;17.65;;;16.70;73.10;;;;;;4774562;30;20062;-70
2021/10/09 11:40:03;;;;;;;20.42;16.70;;;16.70;73.10;;;;;;4774646;30;20062;-70
2021/10/09 11:42:41;;;;;;;20.88;16.80;;;16.70;73.30;;;;;;4774660;30;20098;-71
2021/10/09 11:53:40;;;;;;;19.95;16.73;;;16.70;73.20;;;;;;4774528;30;20047;-70
2021/10/09 11:56:12;;;;;;;17.98;15.95;;;16.70;73.10;;;;;;4774873;30;20146;-70
2021/10/09 11:58:47;;;;;;;19.42;16.55;;;16.70;73.10;;;;;;4774358;30;20460;-70
2021/10/09 12:01:33;;;;;;;18.40;15.52;;;16.70;73.20;;;;;;4774613;30;20047;-70
2021/10/09 12:04:16;;;;;;;20.42;15.57;;;16.70;73.20;;;;;;4774024;30;20048;-71
2021/10/09 12:06:44;;;;;;;19.40;15.30;;;16.70;73.20;;;;;;4774149;30;20055;-70
2021/10/09 12:09:10;;;;;;;18.33;15.20;;;16.70;73.30;;;;;;4774748;30;20051;-69
2021/10/09 12:11:37;;;;;;;18.83;15.23;;;16.70;73.20;;;;;;4773740;30;20142;-69
2021/10/09 12:14:06;;;;;;;20.10;16.05;;;16.70;73.30;;;;;;4774223;30;20044;-70
2021/10/09 12:16:43;;;;;;;17.98;15.75;;;16.70;73.20;;;;;;4774116;30;20067;-70
2021/10/09 12:19:14;;;;;;;18.48;15.02;;;16.80;73.30;;;;;;4758863;30;20066;-70
2021/10/09 12:21:54;;;;;;;18.67;15.18;;;16.70;73.30;;;;;;4772026;30;20047;-70
2021/10/09 12:24:22;;;;;;;17.48;14.93;;;16.80;73.30;;;;;;4756023;30;20441;-70
2021/10/09 12:27:13;;;;;;;17.38;14.73;;;16.70;73.30;;;;;;4756271;30;20376;-70
2021/10/09 12:30:09;;;;;;;19.30;15.63;;;16.70;73.20;;;;;;4755726;30;20480;-70
2021/10/09 12:32:46;;;;;;;18.50;16.02;;;16.80;73.20;;;;;;4756013;30;20098;-70
2021/10/09 12:35:22;;;;;;;18.45;14.70;;;16.80;73.10;;;;;;4756206;30;20066;-70
2021/10/09 12:38:04;;;;;;;17.48;14.77;;;16.70;73.30;;;;;;4755988;30;20130;-70
2021/10/09 12:40:38;;;;;;;15.80;13.52;;;16.70;73.40;;;;;;4740092;30;20055;-70
2021/10/09 12:43:07;;;;;;;15.75;13.98;;;16.70;73.40;;;;;;4756091;30;20468;-70
2021/10/09 12:45:33;;;;;;;16.30;14.55;;;16.70;73.40;;;;;;4755746;30;20066;-70
2021/10/09 12:47:59;;;;;;;16.63;13.57;;;16.70;73.50;;;;;;4755627;30;20139;-70
2021/10/09 12:50:29;;;;;;;18.63;13.90;;;16.70;73.50;;;;;;4740316;30;20074;-70
2021/10/09 12:52:55;;;;;;;16.13;13.77;;;16.70;73.50;;;;;;4756007;30;20199;-70
2021/10/09 12:55:26;;;;;;;16.38;14.52;;;16.70;73.60;;;;;;4755914;30;20128;-70
2021/10/09 12:57:54;;;;;;;18.30;13.90;;;16.70;73.60;;;;;;4755464;30;20060;-70
2021/10/09 13:00:22;;;;;;;17.75;15.07;;;16.70;73.60;;;;;;4755394;30;20059;-69
2021/10/09 13:02:51;;;;;;;16.88;14.48;;;16.70;73.50;;;;;;4755307;30;20084;-71
2021/10/09 13:05:17;;;;;;;15.95;13.85;;;16.80;73.20;;;;;;4755312;30;20060;-70
2021/10/09 13:07:43;;;;;;;15.52;13.85;;;16.80;73.50;;;;;;4755362;30;20056;-70
2021/10/09 13:10:11;;;;;;;16.77;14.15;;;16.80;73.40;;;;;;4755405;30;20067;-70
2021/10/09 13:12:36;;;;;;;16.75;14.30;;;16.80;73.40;;;;;;4755022;30;20048;-70
2021/10/09 13:15:03;;;;;;;16.15;14.40;;;16.80;73.40;;;;;;4754996;30;20060;-72
2021/10/09 13:17:28;;;;;;;16.55;14.20;;;16.80;73.40;;;;;;4751693;30;20060;-70
2021/10/09 13:19:54;;;;;;;19.52;15.48;;;16.90;73.40;;;;;;4772979;30;20482;-71
2021/10/09 13:22:20;;;;;;;22.88;16.67;;;16.90;73.30;;;;;;4773138;30;20047;-71
2021/10/09 13:24:46;;;;;;;26.73;17.92;;;17.00;73.00;;;;;;4768307;30;20524;-71
2021/10/09 13:27:12;;;;;;;31.73;22.23;;;17.10;72.70;;;;;;4772918;30;20369;-70
2021/10/09 13:29:38;;;;;;;33.08;21.55;;;17.20;71.00;;;;;;4773013;30;20054;-71
2021/10/09 13:32:05;;;;;;;29.85;19.92;;;17.30;70.20;;;;;;4772249;30;20047;-74
2021/10/09 13:34:31;;;;;;;29.75;21.17;;;17.20;70.80;;;;;;4757421;30;20489;-74
2021/10/09 13:36:57;;;;;;;35.60;22.52;;;17.20;70.90;;;;;;4767596;30;20102;-72
2021/10/09 13:39:23;;;;;;;36.53;20.92;;;17.30;70.20;;;;;;4772213;30;20067;-75
2021/10/09 13:41:49;;;;;;;41.33;22.08;;;17.30;70.50;;;;;;4757098;30;20052;-72
2021/10/09 13:44:14;;;;;;;33.40;22.63;;;17.30;70.30;;;;;;4772760;30;20051;-73
2021/10/09 13:46:40;;;;;;;38.47;22.75;;;17.40;69.50;;;;;;4772449;30;20055;-72
2021/10/09 13:49:06;;;;;;;32.55;22.70;;;17.50;68.50;;;;;;4757039;30;20091;-73
2021/10/09 13:51:32;;;;;;;34.22;23.00;;;17.60;67.60;;;;;;4772462;30;20063;-73
2021/10/09 13:53:58;;;;;;;35.83;23.13;;;17.60;67.20;;;;;;4772186;30;20056;-73
2021/10/09 13:56:24;;;;;;;33.60;22.42;;;17.60;66.90;;;;;;4772418;30;20113;-72
2021/10/09 13:58:49;;;;;;;33.13;22.80;;;17.60;66.30;;;;;;4772149;30;20113;-73
2021/10/09 14:01:15;;;;;;;31.35;23.08;;;17.60;66.20;;;;;;4772367;30;20052;-73
2021/10/09 14:03:43;;;;;;;29.13;22.02;;;17.60;65.90;;;;;;4772586;30;20094;-72
2021/10/09 14:06:08;;;;;;;31.10;22.77;;;17.70;65.70;;;;;;4772690;30;20344;-73
2021/10/09 14:08:34;;;;;;;28.08;22.02;;;17.60;65.30;;;;;;4772212;30;20062;-73
2021/10/09 14:11:00;;;;;;;30.88;21.83;;;17.60;65.40;;;;;;4772012;30;20063;-73
2021/10/09 14:13:27;;;;;;;27.02;20.75;;;17.70;65.30;;;;;;4772341;30;20059;-74
2021/10/09 14:15:52;;;;;;;28.77;21.83;;;17.70;65.10;;;;;;4756803;30;20502;-73
2021/10/09 14:18:19;;;;;;;30.35;21.20;;;17.70;64.70;;;;;;4772406;30;20056;-73
2021/10/09 14:20:49;;;;;;;32.05;22.63;;;17.70;65.10;;;;;;4771811;30;20054;-73
2021/10/09 14:23:15;;;;;;;28.00;20.77;;;17.70;64.80;;;;;;4758778;30;20056;-73
2021/10/09 14:25:42;;;;;;;29.13;21.10;;;17.70;64.70;;;;;;4754598;30;20078;-72
2021/10/09 14:28:09;;;;;;;30.05;22.30;;;17.70;64.50;;;;;;4754374;30;20048;-74
2021/10/09 14:30:36;;;;;;;29.65;22.25;;;17.70;64.50;;;;;;4753814;30;20056;-73
2021/10/09 14:33:02;;;;;;;33.08;23.50;;;17.70;64.80;;;;;;4754841;30;20423;-73
2021/10/09 14:35:27;;;;;;;33.50;22.45;;;17.60;64.60;;;;;;4754495;30;20056;-72
2021/10/09 14:37:53;;;;;;;34.80;22.85;;;17.70;64.40;;;;;;4770393;30;20048;-72
2021/10/09 14:40:19;;;;;;;27.80;20.15;;;17.60;64.50;;;;;;4767702;30;20516;-73
2021/10/09 14:42:48;;;;;;;27.33;18.85;;;17.50;65.80;;;;;;4774150;30;20112;-71
2021/10/09 14:45:16;;;;;;;28.83;19.48;;;17.40;66.60;;;;;;4789896;30;20098;-74
2021/10/09 14:47:55;;;;;;;29.98;19.63;;;17.30;67.70;;;;;;4789455;30;20059;-73
2021/10/09 14:56:04;;;;;;;24.80;18.80;;;17.00;69.00;;;;;;4789519;30;20051;-71
2021/10/09 15:18:17;;;;;;;31.98;20.25;;;17.50;71.20;;;;;;4771298;30;20055;-73
2021/10/09 15:20:29;;;;;;;29.85;21.55;;;17.70;71.40;;;;;;4766852;30;20060;-74
2021/10/09 15:22:55;;;;;;;37.70;26.67;;;17.90;72.10;;;;;;4755820;30;20371;-70
2021/10/09 15:25:24;;;;;;;30.73;20.77;;;18.00;73.90;;;;;;4767004;30;20056;-72
2021/10/09 15:27:52;;;;;;;29.05;20.40;;;18.00;74.00;;;;;;4756218;30;20483;-73
2021/10/09 15:30:18;;;;;;;32.03;22.65;;;18.10;72.70;;;;;;4770946;30;20044;-72
2021/10/09 15:32:43;;;;;;;29.40;21.23;;;18.10;73.30;;;;;;4771316;30;20044;-73
2021/10/09 15:35:09;;;;;;;30.27;20.75;;;18.20;73.40;;;;;;4771397;30;20058;-71
2021/10/09 15:37:35;;;;;;;28.45;20.35;;;18.20;73.20;;;;;;4771209;30;20054;-71
2021/10/09 15:40:02;;;;;;;28.98;19.88;;;18.20;72.90;;;;;;4771021;30;20137;-71
2021/10/09 15:42:27;;;;;;;28.98;20.10;;;18.20;72.00;;;;;;4790403;30;20139;-71
2021/10/09 15:44:58;;;;;;;32.40;19.15;;;18.20;72.80;;;;;;4792843;30;20130;-71
2021/10/09 15:47:28;;;;;;;28.33;19.67;;;18.10;71.90;;;;;;4792024;30;20495;-70
2021/10/09 15:49:53;;;;;;;26.58;18.33;;;18.10;71.60;;;;;;4792307;30;20130;-70
2021/10/09 15:52:19;;;;;;;26.48;18.20;;;18.20;71.80;;;;;;4792514;30;20419;-71
2021/10/09 15:54:45;;;;;;;26.92;18.45;;;18.10;71.90;;;;;;4792572;30;20051;-74
2021/10/09 15:57:11;;;;;;;27.95;17.75;;;18.10;72.10;;;;;;4776957;30;20367;-71
2021/10/09 15:59:36;;;;;;;23.20;16.10;;;18.10;72.40;;;;;;4792228;30;20047;-73
2021/10/09 16:02:02;;;;;;;25.25;16.83;;;18.00;70.00;;;;;;4792190;30;20059;-72
2021/10/09 16:04:28;;;;;;;20.35;15.00;;;17.70;70.10;;;;;;4791953;30;20063;-73
2021/10/09 16:06:55;;;;;;;24.05;17.27;;;17.60;71.00;;;;;;4791876;30;20119;-72
2021/10/09 16:09:22;;;;;;;24.60;16.25;;;17.70;72.80;;;;;;4792202;30;20460;-72
2021/10/09 16:11:48;;;;;;;20.90;16.00;;;17.80;73.10;;;;;;4791610;29;20124;-72
2021/10/09 16:14:14;;;;;;;22.85;16.55;;;17.80;73.10;;;;;;4792040;30;20159;-72
2021/10/09 16:16:40;;;;;;;19.00;15.13;;;17.90;73.30;;;;;;4775985;30;20055;-72
2021/10/09 16:19:06;;;;;;;24.23;16.73;;;17.90;73.10;;;;;;4792454;30;20078;-72
2021/10/09 16:21:32;;;;;;;21.38;16.08;;;17.90;72.90;;;;;;4791064;30;20130;-72
2021/10/09 16:23:57;;;;;;;23.85;17.25;;;18.00;72.70;;;;;;4773630;30;20189;-72
2021/10/09 16:26:23;;;;;;;25.13;17.95;;;18.00;72.20;;;;;;4773944;30;20056;-72
2021/10/09 16:28:50;;;;;;;24.17;17.05;;;18.00;71.50;;;;;;4774078;30;20087;-72
2021/10/09 16:31:16;;;;;;;26.50;16.83;;;18.00;70.90;;;;;;4768954;30;20107;-71
2021/10/09 16:33:42;;;;;;;24.90;16.20;;;18.00;70.60;;;;;;4772501;30;20052;-71
2021/10/09 16:36:08;;;;;;;16.60;13.98;;;17.90;70.00;;;;;;4772885;30;20096;-71
2021/10/09 16:38:34;;;;;;;19.95;14.80;;;17.80;69.90;;;;;;4757814;30;20234;-71
2021/10/09 16:41:00;;;;;;;20.52;15.00;;;17.60;70.40;;;;;;4773693;30;20062;-71
2021/10/09 16:43:25;;;;;;;20.77;15.27;;;17.50;70.80;;;;;;4757764;30;20465;-71
2021/10/09 16:45:51;;;;;;;30.95;15.45;;;17.50;71.30;;;;;;4773401;30;20123;-70
2021/10/09 16:48:17;;;;;;;24.67;15.30;;;17.40;71.60;;;;;;4757870;30;20090;-71
2021/10/09 16:50:42;;;;;;;22.77;14.75;;;17.40;71.60;;;;;;4773456;30;20059;-71
2021/10/09 16:53:08;;;;;;;24.85;15.13;;;17.40;72.00;;;;;;4772405;30;20051;-71
2021/10/09 16:55:36;;;;;;;20.80;14.77;;;17.40;71.30;;;;;;4773048;30;20495;-71
2021/10/09 16:58:01;;;;;;;24.30;15.30;;;17.40;71.50;;;;;;4773412;30;20385;-71
2021/10/09 17:00:27;;;;;;;24.25;13.75;;;17.40;71.70;;;;;;4773340;30;20062;-71
2021/10/09 17:02:53;;;;;;;21.83;13.75;;;17.40;71.70;;;;;;4773250;30;20055;-71
2021/10/09 17:05:19;;;;;;;19.88;14.25;;;17.40;71.70;;;;;;4773190;30;20452;-71
2021/10/09 17:07:45;;;;;;;21.23;14.00;;;17.40;71.70;;;;;;4772821;30;20060;-72
2021/10/09 17:10:10;;;;;;;21.10;13.70;;;17.50;71.60;;;;;;4773127;30;20052;-71
2021/10/09 17:12:37;;;;;;;25.30;14.68;;;17.50;71.60;;;;;;4772951;30;20063;-71
2021/10/09 17:15:04;;;;;;;20.65;14.25;;;17.50;72.10;;;;;;4772994;30;20124;-71
2021/10/09 17:17:30;;;;;;;19.77;14.07;;;17.50;72.90;;;;;;4772843;30;20228;-71
2021/10/09 17:19:56;;;;;;;24.42;15.10;;;17.50;72.90;;;;;;4772968;30;20133;-71
2021/10/09 17:22:21;;;;;;;20.88;14.32;;;17.60;73.40;;;;;;4773115;30;20063;-71
2021/10/09 17:24:48;;;;;;;21.08;13.88;;;17.60;73.30;;;;;;4757551;30;20106;-70
2021/10/09 17:27:13;;;;;;;22.90;14.93;;;17.70;73.20;;;;;;4772166;30;20202;-70
2021/10/09 17:29:39;;;;;;;30.45;13.43;;;17.70;72.90;;;;;;4772602;30;20150;-71
2021/10/09 17:32:06;;;;;;;27.98;15.38;;;17.70;73.00;;;;;;4772665;30;20484;-70
2021/10/09 17:34:33;;;;;;;21.75;13.82;;;17.70;73.50;;;;;;4772634;30;20208;-71
2021/10/09 17:36:59;;;;;;;20.63;14.32;;;17.70;73.00;;;;;;4773062;30;20075;-71
2021/10/09 17:39:25;;;;;;;28.02;14.88;;;17.80;72.90;;;;;;4772957;30;20047;-71
2021/10/09 17:41:50;;;;;;;26.45;14.90;;;17.80;73.00;;;;;;4772721;30;20044;-72
2021/10/09 17:44:16;;;;;;;21.23;14.10;;;17.80;73.10;;;;;;4772831;30;20368;-71
2021/10/09 17:46:43;;;;;;;25.08;15.13;;;17.70;72.80;;;;;;4772709;30;20059;-71
2021/10/09 17:49:08;;;;;;;25.38;14.40;;;17.80;72.70;;;;;;4772623;30;20055;-71
2021/10/09 17:51:37;;;;;;;21.35;14.90;;;17.70;72.70;;;;;;4770759;30;20063;-74
2021/10/09 17:54:03;;;;;;;22.65;16.48;;;17.70;72.60;;;;;;4762304;30;20464;-75
2021/10/09 17:56:29;;;;;;;24.50;17.48;;;17.70;71.80;;;;;;4738886;30;20153;-74
2021/10/09 17:58:55;;;;;;;23.38;17.83;;;17.70;70.70;;;;;;4759052;30;20048;-72
2021/10/09 18:01:21;;;;;;;25.58;18.58;;;17.70;69.40;;;;;;4755041;30;20174;-73
2021/10/09 18:03:47;;;;;;;21.67;18.05;;;17.70;68.40;;;;;;4754845;30;20441;-73
2021/10/09 18:06:13;;;;;;;24.25;18.23;;;17.70;67.70;;;;;;4754393;30;20060;-73
2021/10/09 18:08:39;;;;;;;25.52;17.77;;;17.60;66.90;;;;;;4754318;30;20063;-74
2021/10/09 18:11:06;;;;;;;23.30;18.92;;;17.60;66.20;;;;;;4738468;30;20060;-73
2021/10/09 18:13:32;;;;;;;24.67;18.73;;;17.50;65.60;;;;;;4754839;30;20064;-74
2021/10/09 18:15:58;;;;;;;23.25;17.90;;;17.40;65.20;;;;;;4754640;30;20059;-74
2021/10/09 18:18:24;;;;;;;22.60;17.70;;;17.40;65.00;;;;;;4767297;30;20368;-74
2021/10/09 18:20:50;;;;;;;26.05;18.63;;;17.30;64.80;;;;;;4772130;30;20059;-72
2021/10/09 18:23:16;;;;;;;22.42;16.92;;;17.20;64.60;;;;;;4772157;30;20047;-73
2021/10/09 18:25:42;;;;;;;22.45;17.60;;;17.10;64.50;;;;;;4771964;30;20111;-73
2021/10/09 18:28:09;;;;;;;21.33;17.42;;;17.10;64.50;;;;;;4756523;30;20062;-72
2021/10/09 18:30:36;;;;;;;22.92;18.67;;;17.00;64.50;;;;;;4771846;30;20051;-73
2021/10/09 18:33:03;;;;;;;24.83;17.52;;;16.90;64.70;;;;;;4771944;30;20098;-73
2021/10/09 18:35:29;;;;;;;22.50;17.95;;;16.90;64.80;;;;;;4771862;30;20130;-73
2021/10/09 18:37:55;;;;;;;23.55;18.33;;;16.90;64.80;;;;;;4771973;30;20189;-74
2021/10/09 18:40:20;;;;;;;22.80;17.08;;;16.80;64.80;;;;;;4771850;30;20117;-74
2021/10/09 18:42:46;;;;;;;20.58;17.52;;;16.80;64.80;;;;;;4772597;30;20058;-73
2021/10/09 18:45:12;;;;;;;21.30;16.73;;;16.80;64.90;;;;;;4771971;30;20059;-74
2021/10/09 18:47:39;;;;;;;21.33;16.25;;;16.80;64.90;;;;;;4771889;30;20054;-71
2021/10/09 18:50:06;;;;;;;20.45;15.65;;;16.80;65.40;;;;;;4771969;30;20087;-71
2021/10/09 18:52:34;;;;;;;20.83;15.95;;;16.80;66.40;;;;;;4771882;30;20095;-71
2021/10/09 18:55:00;;;;;;;18.90;15.02;;;16.90;67.50;;;;;;4771631;30;20059;-73
2021/10/09 18:57:25;;;;;;;18.77;14.52;;;17.00;67.60;;;;;;4771451;30;20055;-72
2021/10/09 18:59:52;;;;;;;22.10;15.00;;;17.00;67.30;;;;;;4770963;30;20367;-72
2021/10/09 19:02:18;;;;;;;20.40;13.55;;;17.10;66.90;;;;;;4771998;30;20063;-72
2021/10/09 19:04:44;;;;;;;19.25;14.07;;;17.10;66.70;;;;;;4771908;30;20062;-71
2021/10/09 19:07:10;;;;;;;19.17;12.63;;;17.20;66.70;;;;;;4771865;30;20345;-71
2021/10/09 19:09:36;;;;;;;17.38;12.05;;;17.20;66.70;;;;;;4771653;30;20062;-72
2021/10/09 19:12:02;;;;;;;16.92;11.45;;;17.30;66.70;;;;;;4771458;30;20478;-70
2021/10/09 19:14:29;;;;;;;17.83;11.20;;;17.30;66.60;;;;;;4772167;30;20052;-72
2021/10/09 19:16:56;;;;;;;22.55;13.07;;;17.40;66.70;;;;;;4773651;30;20143;-71
